Terminal Aerodrome Forecast
Issued by NWS

Home | Current Version | Previous Version | Text Only | Print | Product List | Glossary On
Versions: 1 2 3 4 5 6 7 8 9 10 11 12 13 14 15 16 17 18 19 20 21
000
FTUS41 KAKQ 191132
TAFPHF
TAF
KPHF 191132Z 1912/2012 06006KT 4SM BR SCT250
     FM191300 07012KT P6SM SCT250
     FM191500 07012G22KT P6SM SCT150 BKN250
     FM191900 09015G25KT 5SM -RA BKN025 OVC100
     FM200000 12015G25KT 3SM RA BR OVC008=

USA.gov is the U.S. government's official web portal to all federal, state and local government web resources and services.